createdAt,value
2018-01-25T00:01:18.400Z,461.47
2018-01-25T00:03:24.387Z,438.10
2018-01-25T00:05:30.224Z,450.90
2018-01-25T00:07:36.726Z,454.30
2018-01-25T00:09:43.429Z,451.90
2018-01-25T00:11:49.312Z,436.10
2018-01-25T00:13:55.720Z,434.30
2018-01-25T00:16:01.863Z,419.93
2018-01-25T00:18:07.543Z,393.57
2018-01-25T00:20:14.062Z,388.47
2018-01-25T00:22:19.906Z,372.77
2018-01-25T00:24:26.186Z,354.73
2018-01-25T00:26:32.375Z,359.60
2018-01-25T00:28:38.155Z,350.87
2018-01-25T00:30:44.032Z,345.47
2018-01-25T00:32:49.846Z,341.70
2018-01-25T00:34:56.135Z,327.80
2018-01-25T00:37:01.703Z,328.80
2018-01-25T00:39:08.158Z,328.37
2018-01-25T00:41:13.957Z,328.53
2018-01-25T00:43:19.813Z,299.67
2018-01-25T00:45:25.934Z,304.73
2018-01-25T00:47:31.971Z,794.63
2018-01-25T00:49:37.755Z,647.40
2018-01-25T00:51:43.665Z,488.33
2018-01-25T00:53:49.340Z,479.80
2018-01-25T00:55:55.286Z,482.50
2018-01-25T00:58:01.544Z,491.83
2018-01-25T01:00:07.731Z,485.20
2018-01-25T01:02:13.739Z,476.40
2018-01-25T01:04:20.162Z,481.13
2018-01-25T01:06:26.125Z,479.30
2018-01-25T01:08:32.659Z,477.97
2018-01-25T01:10:38.776Z,469.13
2018-01-25T01:12:44.805Z,458.37
2018-01-25T01:14:54.489Z,453.40
2018-01-25T01:17:01.556Z,444.90
2018-01-25T01:19:07.991Z,436.27
2018-01-25T01:21:13.652Z,434.60
2018-01-25T01:23:19.614Z,430.70
2018-01-25T01:25:26.663Z,417.57
2018-01-25T01:27:33.138Z,418.27
2018-01-25T01:29:39.292Z,408.33
2018-01-25T01:31:45.780Z,391.33
2018-01-25T01:33:51.466Z,383.67
2018-01-25T01:35:57.297Z,393.27
2018-01-25T01:38:03.171Z,381.93
2018-01-25T01:40:09.343Z,373.13
2018-01-25T01:42:15.473Z,371.93
2018-01-25T01:44:21.945Z,346.03
2018-01-25T01:46:32.153Z,342.40
2018-01-25T01:48:44.286Z,335.23
2018-01-25T01:50:55.788Z,327.40
2018-01-25T01:53:04.561Z,325.03
2018-01-25T01:55:10.777Z,307.67
2018-01-25T01:57:16.534Z,294.10
2018-01-25T01:59:22.520Z,303.93
2018-01-25T02:01:29.620Z,297.03
2018-01-25T02:03:36.164Z,280.07
2018-01-25T02:05:42.485Z,289.63
2018-01-25T02:07:48.244Z,272.30
2018-01-25T02:09:54.161Z,265.63
2018-01-25T02:12:00.559Z,269.13
2018-01-25T02:14:06.308Z,266.93
2018-01-25T02:16:12.333Z,269.37
2018-01-25T02:18:18.128Z,257.90
2018-01-25T02:20:23.918Z,247.37
2018-01-25T02:22:30.352Z,246.67
2018-01-25T02:24:36.075Z,233.53
2018-01-25T02:26:42.996Z,236.27
2018-01-25T02:28:49.013Z,237.77
2018-01-25T02:30:54.796Z,225.60
2018-01-25T02:33:00.576Z,220.33
2018-01-25T02:35:06.626Z,220.73
2018-01-25T02:37:12.563Z,215.90
2018-01-25T02:39:18.182Z,219.40
2018-01-25T02:41:23.790Z,210.00
2018-01-25T02:43:32.371Z,213.23
2018-01-25T02:45:38.054Z,198.77
2018-01-25T02:47:43.712Z,195.87
2018-01-25T02:49:49.817Z,194.40
2018-01-25T02:51:55.464Z,189.50
2018-01-25T02:54:01.160Z,185.40
2018-01-25T02:56:06.911Z,178.47
2018-01-25T02:58:12.782Z,181.30
2018-01-25T03:00:18.387Z,169.07
2018-01-25T03:02:24.015Z,169.57
2018-01-25T03:04:30.432Z,159.57
2018-01-25T03:06:36.073Z,160.37
2018-01-25T03:08:41.670Z,161.23
2018-01-25T03:10:47.595Z,155.70
2018-01-25T03:12:53.382Z,154.97
2018-01-25T03:14:58.919Z,156.10
2018-01-25T03:17:04.810Z,145.77
2018-01-25T03:19:10.376Z,152.33
2018-01-25T03:21:15.935Z,149.17
2018-01-25T03:23:21.590Z,146.03
2018-01-25T03:25:29.305Z,144.10
2018-01-25T03:27:34.895Z,144.57
2018-01-25T03:29:40.819Z,135.00
2018-01-25T03:31:46.634Z,134.63
2018-01-25T03:33:52.434Z,134.13
2018-01-25T03:35:58.184Z,131.87
2018-01-25T03:38:04.127Z,132.60
2018-01-25T03:40:09.950Z,127.33
2018-01-25T03:42:16.472Z,123.47
2018-01-25T03:44:24.810Z,116.83
2018-01-25T03:46:33.339Z,115.70
2018-01-25T03:48:40.118Z,115.53
2018-01-25T03:50:46.438Z,109.77
2018-01-25T03:52:51.947Z,112.57
2018-01-25T03:54:57.692Z,112.27
2018-01-25T03:57:03.450Z,108.33
2018-01-25T03:59:10.460Z,105.87
2018-01-25T04:01:16.046Z,105.70
2018-01-25T04:03:21.763Z,98.40
2018-01-25T04:05:27.789Z,99.53
2018-01-25T04:07:33.920Z,99.80
2018-01-25T04:09:39.571Z,98.67
2018-01-25T04:11:45.204Z,101.33
2018-01-25T04:13:50.777Z,92.00
2018-01-25T04:15:56.553Z,87.93
2018-01-25T04:18:02.212Z,90.13
2018-01-25T04:20:07.984Z,89.27
2018-01-25T04:22:13.554Z,88.83
2018-01-25T04:24:19.121Z,80.77
2018-01-25T04:26:27.321Z,81.57
2018-01-25T04:28:33.005Z,81.27
2018-01-25T04:30:38.838Z,79.93
2018-01-25T04:32:44.396Z,79.80
2018-01-25T04:34:50.024Z,77.97
2018-01-25T04:36:55.671Z,73.80
2018-01-25T04:39:01.509Z,76.33
2018-01-25T04:41:07.140Z,67.53
2018-01-25T04:43:12.931Z,70.40
2018-01-25T04:45:18.965Z,69.57
2018-01-25T04:47:26.100Z,69.57
2018-01-25T04:49:32.112Z,70.13
2018-01-25T04:51:38.025Z,65.80
2018-01-25T04:53:44.038Z,64.40
2018-01-25T04:55:50.092Z,63.27
2018-01-25T04:57:55.754Z,57.60
2018-01-25T05:00:01.904Z,58.30
2018-01-25T05:02:07.735Z,63.10
2018-01-25T05:04:13.446Z,54.80
2018-01-25T05:06:24.019Z,57.73
2018-01-25T05:08:29.949Z,60.03
2018-01-25T05:10:35.609Z,57.87
2018-01-25T05:12:41.767Z,51.53
2018-01-25T05:14:47.462Z,54.53
2018-01-25T05:16:53.382Z,53.77
2018-01-25T05:18:59.753Z,51.17
2018-01-25T05:21:05.654Z,51.23
2018-01-25T05:23:11.448Z,54.20
2018-01-25T05:25:17.611Z,48.97
2018-01-25T05:27:23.202Z,46.50
2018-01-25T05:29:29.285Z,48.50
2018-01-25T05:31:35.874Z,45.07
2018-01-25T05:33:42.127Z,45.73
2018-01-25T05:35:48.694Z,42.63
2018-01-25T05:37:54.485Z,46.73
2018-01-25T05:40:00.673Z,42.13
2018-01-25T05:42:06.619Z,45.90
2018-01-25T05:44:12.343Z,43.60
2018-01-25T05:46:21.044Z,38.77
2018-01-25T05:48:26.897Z,40.40
2018-01-25T05:50:34.324Z,41.60
2018-01-25T05:52:41.952Z,37.37
2018-01-25T05:54:47.550Z,39.17
2018-01-25T05:56:53.474Z,36.27
2018-01-25T05:58:59.548Z,35.63
2018-01-25T06:01:05.320Z,34.80
2018-01-25T06:03:11.278Z,36.23
2018-01-25T06:05:16.941Z,36.37
2018-01-25T06:07:22.553Z,36.10
2018-01-25T06:09:28.419Z,35.33
2018-01-25T06:11:34.466Z,36.33
2018-01-25T06:13:40.007Z,31.13
2018-01-25T06:15:46.570Z,34.00
2018-01-25T06:17:53.708Z,32.33
2018-01-25T06:20:00.838Z,30.73
2018-01-25T06:22:07.047Z,31.63
2018-01-25T06:24:13.375Z,34.13
2018-01-25T06:26:19.223Z,27.93
2018-01-25T06:28:25.077Z,30.43
2018-01-25T06:30:31.032Z,31.60
2018-01-25T06:32:37.970Z,31.83
2018-01-25T06:34:45.413Z,29.30
2018-01-25T06:36:51.608Z,28.90
2018-01-25T06:38:57.327Z,28.37
2018-01-25T06:41:03.112Z,27.23
2018-01-25T06:43:13.153Z,28.47
2018-01-25T06:45:18.878Z,27.93
2018-01-25T06:47:24.710Z,26.67
2018-01-25T06:49:30.863Z,26.97
2018-01-25T06:51:36.833Z,24.80
2018-01-25T06:53:42.460Z,24.30
2018-01-25T06:55:48.548Z,24.43
2018-01-25T06:57:54.215Z,24.00
2018-01-25T07:00:00.189Z,24.70
2018-01-25T07:02:07.411Z,29.60
2018-01-25T07:04:13.064Z,24.83
2018-01-25T07:06:18.807Z,24.50
2018-01-25T07:08:24.683Z,27.10
2018-01-25T07:10:30.349Z,23.90
2018-01-25T07:12:36.002Z,27.37
2018-01-25T07:14:42.034Z,836.00
2018-01-25T07:16:47.853Z,556.73
2018-01-25T07:18:53.626Z,452.97
2018-01-25T07:21:00.549Z,507.10
2018-01-25T07:23:06.581Z,444.30
2018-01-25T07:25:12.326Z,360.10
2018-01-25T07:27:19.087Z,292.83
2018-01-25T07:29:25.343Z,246.00
2018-01-25T07:31:31.195Z,239.03
2018-01-25T07:33:37.215Z,668.07
2018-01-25T07:35:43.228Z,538.37
2018-01-25T07:37:49.175Z,653.33
2018-01-25T07:39:55.373Z,388.37
2018-01-25T07:42:03.359Z,315.83
2018-01-25T07:44:11.230Z,293.73
2018-01-25T07:46:18.418Z,321.20
2018-01-25T07:48:26.502Z,487.33
2018-01-25T07:50:33.288Z,457.47
2018-01-25T07:52:39.493Z,624.90
2018-01-25T07:54:46.332Z,488.77
2018-01-25T07:56:52.384Z,413.70
2018-01-25T07:58:58.393Z,372.53
2018-01-25T08:01:04.344Z,356.97
2018-01-25T08:03:10.046Z,311.37
2018-01-25T08:05:15.767Z,280.77
2018-01-25T08:07:23.757Z,277.47
2018-01-25T08:09:32.489Z,266.53
2018-01-25T08:11:39.305Z,216.47
2018-01-25T08:13:46.558Z,191.57
2018-01-25T08:15:59.778Z,161.57
2018-01-25T08:18:05.753Z,572.23
2018-01-25T08:20:11.935Z,507.53
2018-01-25T08:22:17.715Z,470.07
2018-01-25T08:24:23.628Z,367.03
2018-01-25T08:26:32.598Z,343.70
2018-01-25T08:28:38.574Z,368.83
2018-01-25T08:30:44.650Z,752.13
2018-01-25T08:32:50.816Z,582.20
2018-01-25T08:34:56.445Z,446.77
2018-01-25T08:37:02.041Z,504.87
2018-01-25T08:39:08.346Z,462.63
2018-01-25T08:41:14.108Z,403.10
2018-01-25T08:43:19.658Z,382.00
2018-01-25T08:45:27.532Z,291.87
2018-01-25T08:47:33.795Z,301.53
2018-01-25T08:49:39.414Z,325.97
2018-01-25T08:51:45.278Z,311.70
2018-01-25T08:53:50.879Z,300.27
2018-01-25T08:55:56.552Z,530.40
2018-01-25T08:58:03.290Z,393.53
2018-01-25T09:00:09.016Z,575.83
2018-01-25T09:02:14.614Z,438.00
2018-01-25T09:04:20.548Z,357.07
2018-01-25T09:06:27.799Z,405.93
2018-01-25T09:08:34.030Z,368.17
2018-01-25T09:10:39.935Z,351.43
2018-01-25T09:12:47.608Z,342.23
2018-01-25T09:14:55.217Z,279.10
2018-01-25T09:17:01.750Z,287.53
2018-01-25T09:19:08.875Z,248.07
2018-01-25T09:21:15.052Z,205.50
2018-01-25T09:23:22.905Z,252.77
2018-01-25T09:25:33.432Z,252.03
2018-01-25T09:27:41.670Z,616.33
2018-01-25T09:29:49.161Z,462.70
2018-01-25T09:31:57.142Z,510.77
2018-01-25T09:34:06.648Z,478.03
2018-01-25T09:36:13.760Z,401.70
2018-01-25T09:38:22.682Z,380.40
2018-01-25T09:40:31.863Z,337.10
2018-01-25T09:42:39.202Z,273.20
2018-01-25T09:44:45.192Z,191.87
2018-01-25T09:46:50.757Z,211.13
2018-01-25T09:48:56.822Z,228.33
2018-01-25T09:51:03.086Z,213.03
2018-01-25T09:53:11.723Z,211.57
2018-01-25T09:55:18.470Z,202.07
2018-01-25T09:57:27.880Z,166.17
2018-01-25T09:59:35.264Z,354.47
2018-01-25T10:01:42.462Z,480.70
2018-01-25T10:03:49.412Z,419.70
2018-01-25T10:05:57.379Z,434.77
2018-01-25T10:08:04.247Z,350.97
2018-01-25T10:10:11.848Z,329.03
2018-01-25T10:12:19.353Z,252.37
2018-01-25T10:14:27.499Z,241.17
2018-01-25T10:16:33.898Z,192.73
2018-01-25T10:18:39.798Z,225.03
2018-01-25T10:20:45.471Z,169.87
2018-01-25T10:22:52.974Z,198.37
2018-01-25T10:24:59.168Z,207.37
2018-01-25T10:27:04.998Z,196.23
2018-01-25T10:29:11.041Z,165.93
2018-01-25T10:31:16.647Z,138.53
2018-01-25T10:33:22.675Z,169.10
2018-01-25T10:35:28.728Z,136.40
2018-01-25T10:37:34.539Z,117.13
2018-01-25T10:39:40.626Z,139.80
2018-01-25T10:41:48.067Z,133.40
2018-01-25T10:43:59.498Z,610.80
2018-01-25T10:46:05.242Z,403.57
2018-01-25T10:48:15.322Z,369.87
2018-01-25T10:50:23.919Z,300.47
2018-01-25T10:52:33.671Z,288.20
2018-01-25T10:54:39.986Z,211.03
2018-01-25T10:56:45.592Z,198.50
2018-01-25T10:58:51.270Z,192.27
2018-01-25T11:01:01.039Z,158.60
2018-01-25T11:03:06.861Z,159.70
2018-01-25T11:05:13.652Z,147.30
2018-01-25T11:07:19.801Z,143.03
2018-01-25T11:09:26.935Z,137.20
2018-01-25T11:11:32.543Z,124.83
2018-01-25T11:13:38.826Z,91.23
2018-01-25T11:15:44.826Z,104.83
2018-01-25T11:17:51.778Z,101.93
2018-01-25T11:19:57.878Z,84.83
2018-01-25T11:22:03.631Z,85.07
2018-01-25T11:24:09.582Z,75.50
2018-01-25T11:26:15.909Z,66.27
2018-01-25T11:28:21.815Z,74.67
2018-01-25T11:30:27.671Z,71.30
2018-01-25T11:32:35.870Z,60.40
2018-01-25T11:34:41.577Z,60.03
2018-01-25T11:36:47.300Z,54.30
2018-01-25T11:38:53.461Z,51.97
2018-01-25T11:40:59.236Z,42.87
2018-01-25T11:43:04.932Z,45.60
2018-01-25T11:45:11.913Z,36.13
2018-01-25T11:47:17.646Z,39.50
2018-01-25T11:49:23.359Z,30.57
2018-01-25T11:51:29.910Z,26.30
2018-01-25T12:36:54.652Z,224.73
2018-01-25T12:39:02.215Z,216.87
2018-01-25T12:41:11.668Z,183.57
2018-01-25T12:43:17.602Z,163.57
2018-01-25T12:45:23.613Z,146.50
2018-01-25T12:47:29.996Z,180.43
2018-01-25T12:49:35.881Z,145.97
2018-01-25T12:51:42.353Z,155.03
2018-01-25T12:53:51.250Z,147.47
2018-01-25T12:55:57.075Z,148.30
2018-01-25T12:58:04.014Z,132.60
2018-01-25T13:00:12.239Z,106.60
2018-01-25T13:02:18.722Z,146.10
2018-01-25T13:04:25.124Z,142.07
2018-01-25T13:06:32.915Z,147.80
2018-01-25T13:08:43.251Z,154.13
2018-01-25T13:10:50.195Z,152.17
2018-01-25T13:12:57.256Z,143.23
2018-01-25T13:15:05.040Z,143.90
2018-01-25T13:17:11.324Z,142.27
2018-01-25T13:19:18.477Z,142.63
2018-01-25T13:23:35.091Z,1548.43
2018-01-25T13:25:41.046Z,490.00
2018-01-25T13:27:48.458Z,654.90
2018-01-25T13:29:55.671Z,483.67
2018-01-25T13:32:07.433Z,480.90
2018-01-25T13:34:14.704Z,472.50
2018-01-25T13:36:21.978Z,445.63
2018-01-25T13:38:33.449Z,709.43
2018-01-25T13:40:40.291Z,823.83
2018-01-25T13:42:46.657Z,544.03
2018-01-25T13:44:52.635Z,534.30
2018-01-25T13:46:59.387Z,567.77
2018-01-25T13:49:07.001Z,556.43
2018-01-25T13:51:13.718Z,533.27
2018-01-25T13:53:21.609Z,528.10
2018-01-25T13:55:29.474Z,522.67
2018-01-25T13:57:35.414Z,511.30
2018-01-25T13:59:44.724Z,511.37
2018-01-25T14:01:52.950Z,523.23
2018-01-25T14:03:58.964Z,650.53
2018-01-25T14:06:04.975Z,603.53
2018-01-25T14:08:12.226Z,636.30
2018-01-25T14:10:20.626Z,618.97
2018-01-25T14:12:29.569Z,615.07
2018-01-25T14:14:36.720Z,613.57
2018-01-25T14:16:42.947Z,607.60
2018-01-25T14:18:53.415Z,610.53
2018-01-25T14:21:00.044Z,1079.33
2018-01-25T14:23:06.087Z,978.80
2018-01-25T14:25:15.923Z,728.73
2018-01-25T14:27:25.334Z,722.00
2018-01-25T14:29:32.955Z,707.87
2018-01-25T14:31:47.286Z,698.40
2018-01-25T14:33:54.015Z,666.77
2018-01-25T14:35:59.968Z,647.53
2018-01-25T14:38:07.425Z,663.13
2018-01-25T14:40:16.444Z,668.30
2018-01-25T14:42:24.353Z,681.80
2018-01-25T14:44:31.889Z,691.97
2018-01-25T14:46:39.720Z,747.97
2018-01-25T14:48:46.342Z,788.77
2018-01-25T14:50:54.205Z,869.60
2018-01-25T14:53:01.498Z,943.17
2018-01-25T14:55:10.862Z,851.43
2018-01-25T14:57:16.973Z,1114.20
2018-01-25T14:59:28.162Z,873.37
2018-01-25T15:06:22.507Z,607.63
2018-01-25T15:08:28.648Z,576.07
2018-01-25T15:10:34.660Z,563.17
2018-01-25T15:12:42.595Z,550.93
2018-01-25T15:14:49.282Z,545.10
2018-01-25T15:16:55.540Z,541.70
2018-01-25T15:19:04.269Z,527.00
2018-01-25T15:21:10.396Z,515.87
2018-01-25T15:23:16.206Z,516.13
2018-01-25T15:25:28.508Z,499.63
2018-01-25T15:27:41.610Z,502.83
2018-01-25T15:29:48.085Z,496.70
2018-01-25T15:31:57.163Z,496.37
2018-01-25T15:34:10.276Z,486.63
2018-01-25T15:36:45.247Z,486.20
2018-01-25T15:38:56.431Z,479.97
2018-01-25T15:41:07.334Z,478.87
2018-01-25T15:43:15.982Z,472.63
2018-01-25T15:45:24.439Z,469.67
2018-01-25T15:47:31.390Z,463.13
2018-01-25T15:49:39.199Z,457.87
2018-01-25T15:51:46.460Z,453.77
2018-01-25T15:53:52.998Z,484.03
2018-01-25T15:56:00.688Z,557.40
2018-01-25T15:58:07.062Z,467.83
2018-01-25T16:00:13.609Z,442.23
2018-01-25T16:02:19.850Z,443.23
2018-01-25T16:04:26.608Z,433.77
2018-01-25T16:06:32.738Z,417.37
2018-01-25T16:08:38.633Z,414.20
2018-01-25T16:10:46.623Z,392.80
2018-01-25T16:12:54.083Z,392.90
2018-01-25T16:15:01.641Z,385.30
2018-01-25T16:17:10.673Z,383.00
2018-01-25T16:19:17.209Z,378.43
2018-01-25T16:21:24.444Z,366.77
2018-01-25T16:23:30.203Z,363.40
2018-01-25T16:25:36.003Z,360.53
2018-01-25T16:27:43.195Z,351.33
2018-01-25T16:29:50.156Z,352.90
2018-01-25T16:31:56.153Z,336.47
2018-01-25T16:34:02.269Z,332.73
2018-01-25T16:36:08.804Z,331.87
2018-01-25T16:38:15.000Z,320.67
2018-01-25T16:40:21.911Z,322.60
2018-01-25T16:42:29.952Z,311.00
2018-01-25T16:44:38.225Z,305.47
2018-01-25T16:46:45.390Z,315.80
2018-01-25T16:48:51.621Z,293.07
2018-01-25T16:51:01.699Z,308.57
2018-01-25T16:53:13.318Z,303.73
2018-01-25T16:55:19.991Z,299.47
2018-01-25T16:57:27.153Z,287.07
2018-01-25T16:59:35.008Z,276.17
2018-01-25T17:01:45.339Z,274.07
2018-01-25T17:03:54.098Z,268.40
2018-01-25T17:06:06.883Z,254.50
2018-01-25T17:10:51.465Z,250.90
2018-01-25T17:13:00.933Z,237.13
2018-01-25T17:15:14.579Z,233.57
2018-01-25T17:17:21.356Z,231.10
2018-01-25T17:19:33.188Z,220.40
2018-01-25T17:21:40.391Z,214.37
2018-01-25T17:23:48.546Z,206.17
2018-01-25T17:25:55.600Z,213.50
2018-01-25T17:28:02.877Z,192.67
2018-01-25T17:30:10.936Z,202.57
2018-01-25T17:32:17.827Z,196.10
2018-01-25T17:34:25.660Z,193.47
2018-01-25T17:36:34.834Z,182.97
2018-01-25T17:38:41.818Z,185.83
2018-01-25T17:40:49.627Z,181.83
2018-01-25T17:42:56.412Z,174.07
2018-01-25T17:45:02.291Z,172.97
2018-01-25T17:47:10.972Z,168.93
2018-01-25T17:49:20.140Z,165.13
2018-01-25T17:51:27.707Z,158.50
2018-01-25T17:53:48.201Z,155.27
2018-01-25T17:56:00.461Z,151.03
2018-01-25T17:58:06.753Z,151.20
2018-01-25T18:00:16.095Z,146.90
2018-01-25T18:02:22.443Z,143.03
2018-01-25T18:04:29.438Z,137.97
2018-01-25T18:06:36.866Z,135.83
2018-01-25T18:08:45.563Z,139.60
2018-01-25T18:10:51.853Z,132.33
2018-01-25T18:12:57.968Z,127.80
2018-01-25T18:15:05.903Z,122.07
2018-01-25T18:17:13.574Z,115.73
2018-01-25T18:19:25.777Z,120.70
2018-01-25T18:21:31.551Z,115.13
2018-01-25T18:23:37.568Z,109.73
2018-01-25T18:25:51.496Z,109.83
2018-01-25T18:27:58.868Z,106.03
2018-01-25T18:30:12.350Z,104.67
2018-01-25T18:32:18.838Z,100.70
2018-01-25T18:34:29.565Z,100.73
2018-01-25T18:36:40.296Z,98.10
2018-01-25T18:38:48.120Z,98.57
2018-01-25T18:41:00.857Z,94.93
2018-01-25T18:43:06.978Z,93.83
2018-01-25T18:45:15.248Z,90.30
2018-01-25T18:47:35.646Z,85.83
2018-01-25T18:49:56.009Z,82.80
2018-01-25T18:52:06.645Z,81.17
2018-01-25T18:54:17.650Z,82.60
2018-01-25T18:56:26.016Z,74.93
2018-01-25T18:58:33.267Z,75.07
2018-01-25T19:00:40.793Z,72.17
2018-01-25T19:02:48.945Z,69.67
2018-01-25T19:04:57.112Z,67.13
2018-01-25T19:07:04.717Z,65.30
2018-01-25T19:09:13.752Z,64.57
2018-01-25T19:11:20.727Z,67.03
2018-01-25T19:13:26.530Z,68.77
2018-01-25T19:15:37.006Z,62.70
2018-01-25T19:17:44.056Z,60.97
2018-01-25T19:19:53.345Z,62.83
2018-01-25T19:22:00.939Z,58.53
2018-01-25T19:24:07.887Z,59.57
2018-01-25T19:26:20.788Z,57.30
2018-01-25T19:28:30.146Z,55.37
2018-01-25T19:30:38.234Z,53.70
2018-01-25T19:32:47.138Z,50.77
2018-01-25T19:34:54.673Z,51.00
2018-01-25T19:37:01.673Z,52.77
2018-01-25T19:39:08.869Z,53.40
2018-01-25T19:41:15.263Z,47.03
2018-01-25T19:43:22.058Z,44.97
2018-01-25T19:45:28.196Z,47.53
2018-01-25T19:47:37.592Z,49.00
2018-01-25T19:49:45.288Z,46.40
2018-01-25T19:51:54.743Z,43.00
2018-01-25T19:54:05.348Z,43.03
2018-01-25T19:56:11.877Z,43.37
2018-01-25T19:58:20.929Z,41.70
2018-01-25T20:00:27.141Z,43.40
2018-01-25T20:02:34.791Z,39.00
2018-01-25T20:04:41.487Z,40.50
2018-01-25T20:06:47.645Z,38.70
2018-01-25T20:08:54.274Z,38.80
2018-01-25T20:11:00.189Z,37.80
2018-01-25T20:13:06.127Z,36.03
2018-01-25T20:15:13.169Z,36.00
2018-01-25T20:17:19.962Z,36.07
2018-01-25T20:19:33.620Z,33.03
2018-01-25T20:21:40.919Z,34.03
2018-01-25T20:23:46.930Z,33.00
2018-01-25T20:25:55.770Z,32.30
2018-01-25T20:28:03.210Z,32.03
2018-01-25T20:30:10.638Z,31.53
2018-01-25T20:32:22.834Z,31.03
2018-01-25T20:34:30.446Z,30.27
2018-01-25T20:36:39.383Z,30.23
2018-01-25T20:38:48.399Z,29.00
2018-01-25T20:40:59.297Z,30.30
2018-01-25T20:43:08.225Z,25.90
2018-01-25T20:45:15.695Z,28.23
2018-01-25T20:47:22.594Z,25.17
2018-01-25T20:49:36.631Z,26.30
2018-01-25T20:51:44.853Z,25.07
2018-01-25T20:53:56.647Z,25.40
2018-01-25T20:56:13.491Z,23.43
2018-01-25T20:58:23.552Z,22.80
2018-01-25T21:00:33.300Z,24.67
2018-01-25T21:04:50.357Z,22.63
2018-01-25T21:07:05.580Z,22.03
2018-01-25T21:09:12.539Z,21.10
2018-01-25T21:11:25.097Z,22.33
2018-01-25T21:13:35.109Z,23.53
2018-01-25T21:15:43.928Z,21.40
2018-01-25T21:18:15.388Z,23.20
2018-01-25T21:20:25.103Z,19.43
2018-01-25T21:22:35.288Z,19.43
2018-01-25T21:24:44.163Z,20.50
2018-01-25T21:26:55.588Z,18.13
2018-01-25T21:29:05.523Z,18.57
2018-01-25T21:33:36.687Z,17.80
2018-01-25T21:35:45.718Z,18.77
2018-01-25T21:37:54.017Z,16.57
2018-01-25T21:40:02.453Z,17.63
2018-01-25T21:42:25.363Z,15.87
2018-01-25T21:44:36.018Z,15.57
2018-01-25T21:46:43.942Z,17.03
2018-01-25T21:48:53.798Z,15.60
2018-01-25T21:51:00.607Z,16.10
2018-01-25T21:53:09.144Z,15.40
2018-01-25T21:55:16.134Z,15.10
2018-01-25T21:57:23.430Z,15.90
2018-01-25T21:59:30.564Z,13.47
2018-01-25T22:01:38.156Z,14.73
2018-01-25T22:03:44.271Z,13.90
2018-01-25T22:05:50.585Z,13.33
2018-01-25T22:07:57.575Z,13.00
2018-01-25T22:10:04.251Z,13.20
2018-01-25T22:12:11.102Z,12.20
2018-01-25T22:14:17.924Z,12.80
2018-01-25T22:16:24.573Z,14.70
2018-01-25T22:18:30.847Z,12.17
2018-01-25T22:20:37.081Z,16.17
2018-01-25T22:22:44.346Z,516.70
2018-01-25T22:24:58.359Z,551.47
2018-01-25T22:27:12.603Z,723.90
2018-01-25T22:29:21.357Z,566.20
2018-01-25T22:31:39.525Z,501.30
2018-01-25T22:33:47.258Z,458.03
2018-01-25T22:35:52.984Z,442.30
2018-01-25T22:37:59.494Z,421.40
2018-01-25T22:40:07.852Z,397.77
2018-01-25T22:42:13.596Z,378.87
2018-01-25T22:44:20.520Z,370.73
2018-01-25T22:46:26.651Z,360.03
2018-01-25T22:48:34.134Z,350.40
2018-01-25T22:50:40.395Z,325.10
2018-01-25T22:52:46.159Z,324.80
2018-01-25T22:54:53.056Z,308.13
2018-01-25T22:57:02.898Z,300.47
2018-01-25T22:59:09.791Z,609.27
2018-01-25T23:01:22.349Z,736.37
2018-01-25T23:03:32.774Z,719.73
2018-01-25T23:05:40.272Z,658.27
2018-01-25T23:07:47.141Z,624.87
2018-01-25T23:09:56.325Z,593.30
2018-01-25T23:12:03.561Z,577.47
2018-01-25T23:14:11.621Z,555.20
2018-01-25T23:16:19.808Z,542.10
2018-01-25T23:18:37.451Z,533.87
2018-01-25T23:20:44.996Z,518.10
2018-01-25T23:22:52.435Z,506.30
2018-01-25T23:24:58.176Z,979.70
2018-01-25T23:27:04.609Z,1423.40
2018-01-25T23:29:16.185Z,1324.03
2018-01-25T23:31:22.247Z,1101.57
2018-01-25T23:33:28.192Z,1124.47
2018-01-25T23:35:35.087Z,979.90
2018-01-25T23:37:41.095Z,881.97
2018-01-25T23:39:47.077Z,754.50
2018-01-25T23:41:53.393Z,595.47
2018-01-25T23:43:59.287Z,513.27
2018-01-25T23:46:05.330Z,482.63
2018-01-25T23:48:12.355Z,430.07
2018-01-25T23:50:18.220Z,392.00
2018-01-25T23:52:25.463Z,366.30
2018-01-25T23:54:32.229Z,345.70
2018-01-25T23:56:45.766Z,326.90
2018-01-25T23:59:02.633Z,312.13
